Subpeak Weather - Last Hour


View Last Hour    View Last 24 Hours

Time
Avg. Air Temp
Dew Point
Avg. Rel Humidity
Avg. 2 Min Wind Speed
Max Gust Velocity
MGV Time
MGV Direction
Avg. Spot Wind Velocity
2014-09-23 05:15:007° C3° C77%14 km/h21 km/h2014-09-23 05:12:10S17 km/h
2014-09-23 05:10:007° C3° C77%17 km/h24 km/h2014-09-23 05:07:10SE18 km/h
2014-09-23 05:05:007° C3° C76%18 km/h26 km/h2014-09-23 05:01:00S19 km/h
2014-09-23 05:00:007° C3° C75%18 km/h26 km/h2014-09-23 04:56:00S18 km/h
2014-09-23 04:55:007° C3° C75%16 km/h26 km/h2014-09-23 04:53:10SE20 km/h
2014-09-23 04:50:007° C3° C75%21 km/h31 km/h2014-09-23 04:49:10S22 km/h
2014-09-23 04:45:007° C3° C75%18 km/h27 km/h2014-09-23 04:43:10SE15 km/h
2014-09-23 04:40:007° C3° C75%17 km/h30 km/h2014-09-23 04:37:10SE19 km/h
2014-09-23 04:35:007° C3° C76%15 km/h29 km/h2014-09-23 04:33:10S18 km/h
2014-09-23 04:30:007° C3° C76%14 km/h21 km/h2014-09-23 04:27:10SE17 km/h
2014-09-23 04:25:007° C3° C76%18 km/h21 km/h2014-09-23 04:25:10S16 km/h
2014-09-23 04:20:007° C3° C76%14 km/h18 km/h2014-09-23 04:19:10SE11 km/h
2014-09-23 04:15:007° C3° C75%12 km/h16 km/h2014-09-23 04:15:10SE10 km/h
2014-09-23 04:10:006° C2° C74%10 km/h14 km/h2014-09-23 04:10:10SE8 km/h
2014-09-23 04:05:006° C2° C73%6 km/h7 km/h2014-09-23 04:05:10E5 km/h
2014-09-23 04:00:006° C2° C71%4 km/h8 km/h2014-09-23 04:00:10E4 km/h
2014-09-23 03:55:006° C1° C70%3 km/h13 km/h2014-09-23 03:51:00SW6 km/h
2014-09-23 03:50:006° C1° C71%10 km/h12 km/h2014-09-23 03:50:10S6 km/h
2014-09-23 03:45:005° C1° C72%7 km/h16 km/h2014-09-23 03:41:00W9 km/h
2014-09-23 03:40:005° C0° C73%14 km/h17 km/h2014-09-23 03:40:10W14 km/h